»·PEaware :: WAT306 KOTH-KBUR

WAT306 :: KOTH-KBUR

FLIGHT INFORMATION

Flight Status: Arrived
Operator:
Walker Air Transport
More flights by this operator :: More flights under this callsign
Pilot: Ethan S. (29221)
Aircraft: SOCATA TBM-900
(TBM9)
More flights by this aircraft type
Origin: KOTH North Bend Mun
United States
Destination: KBUR Bob Hope-Burbank
United States
More flights between these airports :: More routes between these airports
Route: +OTH7 DEROY RBL SAC RDHOT ROKKR2
File this flight plan on PilotEdge
Remarks:
Altitude:
(Current/Filed)
31,000ft
Speed:
(Current/Filed)
315kts
Departed: 20-Nov-20 01:31 PM
Arrived: 20-Nov-20 03:44 PM
Distance/Time
Traveled:
617nm/2:13
Distance/Time
To Go:
Arrived

Flight Plot

Page will automatically refresh every two minutes.

Flight plan parsing failed; only flown route is shown


Map Options




Map Legend


Flown Route
Filed Route
Departure Airport
Arrival Airport
Navaid (VOR, NDB)
Fix

Horizontal Profiles

Position Reports

Time Latitude Longitude Heading Altitude Ground
Speed
20-Nov-20 13:23 43.414940 -124.244675 331 22ft 0kts
20-Nov-20 13:24 43.414940 -124.244675 331 22ft 0kts
20-Nov-20 13:25 43.414940 -124.244675 331 22ft 0kts
20-Nov-20 13:26 43.414940 -124.244675 331 22ft 0kts
20-Nov-20 13:27 43.414940 -124.244675 331 22ft 0kts
20-Nov-20 13:27 43.414947 -124.244680 330 22ft 1kts
20-Nov-20 13:29 43.413143 -124.242304 150 18ft 10kts
20-Nov-20 13:29 43.410050 -124.239826 150 12ft 18kts
20-Nov-20 13:31 43.413071 -124.240833 330 13ft 85kts
20-Nov-20 13:31 43.426521 -124.268553 241 1392ft 133kts
20-Nov-20 13:32 43.444325 -124.286504 58 3724ft 130kts
20-Nov-20 13:33 43.435089 -124.236838 109 5796ft 139kts
20-Nov-20 13:34 43.420329 -124.185338 110 7792ft 147kts
20-Nov-20 13:35 43.394211 -124.139381 135 10352ft 155kts
20-Nov-20 13:36 43.362049 -124.095255 136 12943ft 164kts
20-Nov-20 13:37 43.327380 -124.047847 137 15629ft 173kts
20-Nov-20 13:38 43.290308 -123.997242 138 18031ft 182kts
20-Nov-20 13:39 43.245279 -123.958334 163 20189ft 187kts
20-Nov-20 13:40 43.194107 -123.928815 164 22883ft 194kts
20-Nov-20 13:41 43.141449 -123.898503 165 25442ft 204kts
20-Nov-20 13:42 43.087153 -123.867298 166 27899ft 212kts
20-Nov-20 13:43 43.030161 -123.834612 166 30217ft 221kts
20-Nov-20 13:44 42.967857 -123.799131 165 31541ft 272kts
20-Nov-20 13:45 42.889091 -123.754021 164 31504ft 318kts
20-Nov-20 13:46 42.803531 -123.705250 164 31493ft 332kts
20-Nov-20 13:47 42.716109 -123.655633 163 31489ft 337kts
20-Nov-20 13:48 42.628068 -123.605828 164 31486ft 338kts
20-Nov-20 13:49 42.539387 -123.555828 164 31484ft 339kts
20-Nov-20 13:50 42.450350 -123.505717 164 31480ft 339kts
20-Nov-20 13:51 42.361394 -123.455880 163 31473ft 339kts
20-Nov-20 13:52 42.271475 -123.405608 163 31466ft 340kts
20-Nov-20 13:53 42.182025 -123.355769 164 31480ft 339kts
20-Nov-20 13:54 42.093150 -123.306421 164 31470ft 339kts
20-Nov-20 13:55 42.004441 -123.257289 164 31472ft 338kts
20-Nov-20 13:56 41.915975 -123.208452 164 31472ft 338kts
20-Nov-20 13:57 41.827685 -123.159833 164 31468ft 337kts
20-Nov-20 13:58 41.739733 -123.111575 164 31459ft 338kts
20-Nov-20 13:59 41.652000 -123.063561 165 31455ft 336kts
20-Nov-20 14:00 41.563813 -123.015454 164 31459ft 335kts
20-Nov-20 14:01 41.476385 -122.967881 165 31458ft 334kts
20-Nov-20 14:02 41.390168 -122.921119 165 31457ft 327kts
20-Nov-20 14:03 41.305476 -122.875315 165 31457ft 324kts
20-Nov-20 14:04 41.221562 -122.830067 165 31458ft 322kts
20-Nov-20 14:05 41.137791 -122.785011 165 31458ft 322kts
20-Nov-20 14:06 41.053736 -122.739841 167 31409ft 322kts
20-Nov-20 14:07 40.969811 -122.694945 169 31332ft 322kts
20-Nov-20 14:08 40.886495 -122.650582 169 31315ft 319kts
20-Nov-20 14:09 40.803417 -122.606402 169 31318ft 318kts
20-Nov-20 14:10 40.720197 -122.562254 169 31319ft 318kts
20-Nov-20 14:11 40.637014 -122.518232 169 31318ft 317kts
20-Nov-20 14:12 40.553923 -122.474387 169 31318ft 318kts
20-Nov-20 14:13 40.471439 -122.430976 169 31319ft 318kts
20-Nov-20 14:14 40.388428 -122.387417 169 31318ft 318kts
20-Nov-20 14:15 40.305211 -122.343847 170 31284ft 318kts
20-Nov-20 14:16 40.222761 -122.300799 170 31284ft 315kts
20-Nov-20 14:17 40.140481 -122.257963 170 31288ft 314kts
20-Nov-20 14:18 40.058109 -122.219036 174 31287ft 310kts
20-Nov-20 14:19 39.975341 -122.184037 174 31285ft 310kts
20-Nov-20 14:20 39.892078 -122.148908 174 31279ft 310kts
20-Nov-20 14:21 39.808316 -122.113645 174 31273ft 310kts
20-Nov-20 14:22 39.724361 -122.078408 174 31273ft 311kts
20-Nov-20 14:23 39.641110 -122.043547 174 31274ft 311kts
20-Nov-20 14:24 39.557274 -122.008525 174 31274ft 311kts
20-Nov-20 14:25 39.473743 -121.973719 174 31275ft 311kts
20-Nov-20 14:26 39.390675 -121.939210 174 31275ft 311kts
20-Nov-20 14:27 39.306849 -121.904461 174 31276ft 311kts
20-Nov-20 14:28 39.223095 -121.869813 174 31275ft 311kts
20-Nov-20 14:29 39.139641 -121.835391 174 31275ft 311kts
20-Nov-20 14:30 39.056417 -121.801149 174 31273ft 311kts
20-Nov-20 14:31 38.972827 -121.766810 175 31276ft 310kts
20-Nov-20 14:32 38.889351 -121.732627 176 31280ft 306kts
20-Nov-20 14:33 38.806864 -121.698986 177 31280ft 304kts
20-Nov-20 14:34 38.724657 -121.665491 177 31282ft 303kts
20-Nov-20 14:35 38.642950 -121.632289 177 31280ft 302kts
20-Nov-20 14:36 38.561386 -121.599220 177 31280ft 302kts
20-Nov-20 14:37 38.479636 -121.566147 177 31281ft 302kts
20-Nov-20 14:38 38.397833 -121.531696 175 31280ft 304kts
20-Nov-20 14:39 38.316487 -121.496397 175 31279ft 304kts
20-Nov-20 14:40 38.234650 -121.460976 175 31280ft 304kts
20-Nov-20 14:41 38.153417 -121.425895 175 31277ft 304kts
20-Nov-20 14:42 38.071626 -121.390660 175 31272ft 304kts
20-Nov-20 14:43 37.990414 -121.355752 175 31271ft 303kts
20-Nov-20 14:44 37.909359 -121.320993 176 31253ft 301kts
20-Nov-20 14:45 37.828971 -121.286602 176 31262ft 301kts
20-Nov-20 14:46 37.748192 -121.252122 176 31263ft 301kts
20-Nov-20 14:47 37.668270 -121.218099 176 31263ft 301kts
20-Nov-20 14:48 37.587640 -121.183835 176 31263ft 301kts
20-Nov-20 14:49 37.507100 -121.149688 176 31262ft 300kts
20-Nov-20 14:50 37.426704 -121.115687 176 31263ft 299kts
20-Nov-20 14:51 37.346577 -121.081874 176 31262ft 298kts
20-Nov-20 14:52 37.266861 -121.048311 176 31261ft 296kts
20-Nov-20 14:53 37.187618 -121.015022 176 31262ft 294kts
20-Nov-20 14:54 37.108594 -120.981899 177 31266ft 293kts
20-Nov-20 14:55 37.029759 -120.948910 177 31252ft 296kts
20-Nov-20 14:56 36.949134 -120.915283 178 31242ft 303kts
20-Nov-20 14:57 36.866485 -120.880881 177 31255ft 308kts
20-Nov-20 14:58 36.783479 -120.846389 177 31258ft 309kts
20-Nov-20 14:59 36.700204 -120.811865 177 31263ft 310kts
20-Nov-20 15:00 36.616744 -120.777355 177 31269ft 310kts
20-Nov-20 15:01 36.533005 -120.742800 177 31275ft 310kts
20-Nov-20 15:02 36.450003 -120.708644 177 31273ft 310kts
20-Nov-20 15:03 36.365374 -120.673878 177 31250ft 311kts
20-Nov-20 15:05 36.280907 -120.639276 177 31240ft 311kts
20-Nov-20 15:06 36.197271 -120.605077 177 31232ft 310kts
20-Nov-20 15:07 36.113628 -120.570959 177 31225ft 310kts
20-Nov-20 15:08 36.029892 -120.536872 177 31226ft 310kts
20-Nov-20 15:09 35.946028 -120.502818 177 31225ft 310kts
20-Nov-20 15:10 35.862509 -120.468981 177 31232ft 311kts
20-Nov-20 15:11 35.778537 -120.435029 177 31232ft 311kts
20-Nov-20 15:12 35.694616 -120.401177 177 31231ft 312kts
20-Nov-20 15:13 35.610260 -120.367233 177 31232ft 311kts
20-Nov-20 15:14 35.532728 -120.297768 154 31213ft 346kts
20-Nov-20 15:15 35.458457 -120.220135 154 31198ft 344kts
20-Nov-20 15:16 35.379223 -120.137799 152 29776ft 360kts
20-Nov-20 15:17 35.300325 -120.055946 151 28134ft 362kts
20-Nov-20 15:18 35.219620 -119.972466 150 26450ft 360kts
20-Nov-20 15:19 35.141267 -119.891630 149 24818ft 356kts
20-Nov-20 15:20 35.065537 -119.813630 149 24124ft 333kts
20-Nov-20 15:21 34.994536 -119.740868 149 23455ft 332kts
20-Nov-20 15:22 34.922821 -119.667405 148 21965ft 329kts
20-Nov-20 15:22 34.865713 -119.604885 137 21069ft 322kts
20-Nov-20 15:24 34.796984 -119.502406 135 18796ft 332kts
20-Nov-20 15:24 34.749431 -119.430523 134 18022ft 301kts
20-Nov-20 15:26 34.688093 -119.337087 134 16483ft 301kts
20-Nov-20 15:26 34.643978 -119.269676 130 15050ft 299kts
20-Nov-20 15:28 34.594621 -119.170160 124 13990ft 293kts
20-Nov-20 15:28 34.559187 -119.098544 123 12493ft 285kts
20-Nov-20 15:29 34.507145 -119.035177 146 11721ft 253kts
20-Nov-20 15:30 34.448178 -118.981215 145 10175ft 263kts
20-Nov-20 15:31 34.390488 -118.924568 142 8659ft 269kts
20-Nov-20 15:32 34.334965 -118.866110 139 8011ft 239kts
20-Nov-20 15:33 34.286965 -118.813190 139 7636ft 233kts
20-Nov-20 15:34 34.253155 -118.753787 115 6407ft 202kts
20-Nov-20 15:35 34.229847 -118.690146 115 4841ft 203kts
20-Nov-20 15:36 34.207264 -118.628562 115 3320ft 191kts
20-Nov-20 15:37 34.200818 -118.572144 92 2993ft 148kts
20-Nov-20 15:38 34.199990 -118.517557 92 3024ft 173kts
20-Nov-20 15:39 34.199232 -118.464929 92 2289ft 131kts
20-Nov-20 15:40 34.198702 -118.426977 93 1701ft 98kts
20-Nov-20 15:41 34.198283 -118.395184 93 1208ft 92kts
20-Nov-20 15:42 34.197866 -118.365569 92 725ft 69kts
20-Nov-20 15:43 34.199186 -118.360237 0 719ft 10kts
20-Nov-20 15:44 34.200164 -118.359466 346 721ft 0kts
20-Nov-20 15:45 34.200163 -118.359466 346 721ft 0kts
20-Nov-20 15:46 34.200163 -118.359466 346 721ft 0kts
20-Nov-20 15:47 34.200163 -118.359466 346 721ft 0kts
20-Nov-20 15:48 34.200163 -118.359466 346 721ft 0kts
20-Nov-20 15:49 34.200163 -118.359466 346 721ft 0kts
20-Nov-20 15:50 34.200163 -118.359466 346 721ft 0kts
20-Nov-20 15:51 34.200163 -118.359466 346 721ft 0kts

Navigation Log

Ident Type
Flight plan parsing failed, navigation log unavailable